Time;durP1;ratioP1;P1;durP2;ratioP2;P2;SDS_P1;SDS_P2;PMS_P1;PMS_P2;Temp;Humidity;BMP_temperature;BMP_pressure;BME280_temperature;BME280_humidity;BME280_pressure;Samples;Min_cycle;Max_cycle;Signal;HPM_P1;HPM_P2
2023/01/16 00:00:22;;;;;;;8.52;3.03;;;4.70;99.90;;;;;;5142226;27;20118;-81
2023/01/16 00:02:48;;;;;;;5.65;2.72;;;4.70;99.90;;;;;;5134392;27;20114;-81
2023/01/16 00:05:13;;;;;;;7.57;3.17;;;4.70;99.90;;;;;;5118524;27;20055;-81
2023/01/16 00:07:39;;;;;;;6.00;2.40;;;4.70;99.90;;;;;;5138926;27;20078;-81
2023/01/16 00:10:05;;;;;;;6.05;2.80;;;4.70;99.90;;;;;;5121151;27;20114;-81
2023/01/16 00:12:31;;;;;;;7.15;2.55;;;4.70;99.90;;;;;;5117760;27;20031;-81
2023/01/16 00:14:56;;;;;;;7.55;2.70;;;4.70;99.90;;;;;;5124439;27;20634;-81
2023/01/16 00:17:22;;;;;;;6.25;2.40;;;4.70;99.90;;;;;;5113521;27;20477;-81
2023/01/16 00:19:48;;;;;;;9.02;2.55;;;4.70;99.90;;;;;;5124821;27;20039;-81
2023/01/16 00:22:13;;;;;;;9.60;2.88;;;4.60;99.90;;;;;;5135710;27;20141;-81
2023/01/16 00:24:39;;;;;;;7.47;2.60;;;4.50;99.90;;;;;;5121429;27;20046;-81
2023/01/16 00:27:04;;;;;;;5.57;2.58;;;4.50;99.90;;;;;;5117681;27;20382;-81
2023/01/16 00:29:30;;;;;;;5.38;1.85;;;4.50;99.90;;;;;;5113906;27;20042;-81
2023/01/16 00:31:56;;;;;;;5.93;2.50;;;4.40;99.90;;;;;;5121646;27;20394;-81
2023/01/16 00:34:21;;;;;;;7.30;2.50;;;4.40;99.90;;;;;;5134119;27;20051;-81
2023/01/16 00:36:47;;;;;;;6.40;2.15;;;4.30;99.90;;;;;;5143963;27;20434;-81
2023/01/16 00:39:13;;;;;;;6.50;2.22;;;4.20;99.90;;;;;;5117830;27;20033;-81
2023/01/16 00:41:38;;;;;;;5.38;2.38;;;4.10;99.90;;;;;;5117694;27;20088;-81
2023/01/16 00:44:04;;;;;;;6.72;2.22;;;4.10;99.90;;;;;;5130911;27;20070;-81
2023/01/16 00:46:29;;;;;;;7.10;2.15;;;4.00;99.90;;;;;;5134186;27;20040;-81
2023/01/16 00:48:56;;;;;;;6.43;2.17;;;3.90;99.90;;;;;;5143861;27;20047;-81
2023/01/16 00:51:22;;;;;;;5.72;2.17;;;3.80;99.90;;;;;;5138933;27;20114;-81
2023/01/16 00:53:48;;;;;;;5.03;2.17;;;3.80;99.90;;;;;;5141410;27;20118;-81
2023/01/16 00:56:13;;;;;;;7.68;2.72;;;3.80;99.90;;;;;;5108232;27;20047;-81
2023/01/16 00:58:39;;;;;;;7.97;2.95;;;3.70;99.90;;;;;;5112559;27;20381;-81
2023/01/16 01:01:05;;;;;;;6.38;2.20;;;3.70;99.90;;;;;;5118564;27;20493;-81
2023/01/16 01:03:31;;;;;;;6.47;2.22;;;3.60;99.90;;;;;;5134629;27;20047;-81
2023/01/16 01:05:57;;;;;;;8.48;2.30;;;3.60;99.90;;;;;;5122469;27;20039;-81
2023/01/16 01:08:23;;;;;;;5.00;2.33;;;3.50;99.90;;;;;;5125612;27;20039;-81
2023/01/16 01:10:49;;;;;;;8.65;2.58;;;3.50;99.90;;;;;;5117437;27;20501;-81
2023/01/16 01:13:15;;;;;;;8.52;2.20;;;3.50;99.90;;;;;;5131045;27;20046;-81
2023/01/16 01:15:40;;;;;;;6.35;2.40;;;3.40;99.90;;;;;;5109360;27;20039;-81
2023/01/16 01:18:06;;;;;;;6.75;2.50;;;3.40;99.90;;;;;;5135753;27;20042;-81
2023/01/16 01:20:32;;;;;;;3.70;1.85;;;3.40;99.90;;;;;;5124450;27;20038;-81
2023/01/16 01:22:58;;;;;;;7.40;2.47;;;3.30;99.90;;;;;;5114833;27;20484;-81
2023/01/16 01:25:24;;;;;;;4.75;2.45;;;3.30;99.90;;;;;;5137643;27;20072;-81
2023/01/16 01:27:49;;;;;;;4.80;2.38;;;3.30;99.90;;;;;;5135477;27;20072;-81
2023/01/16 01:30:16;;;;;;;8.15;3.03;;;3.20;99.90;;;;;;5114114;27;20438;-81
2023/01/16 01:32:42;;;;;;;8.40;2.42;;;3.20;99.90;;;;;;5116163;27;20038;-82
2023/01/16 01:35:08;;;;;;;7.68;2.17;;;3.20;99.90;;;;;;5140900;27;20499;-81
2023/01/16 01:37:35;;;;;;;7.07;2.40;;;3.20;99.90;;;;;;5113994;27;20042;-81
2023/01/16 01:40:04;;;;;;;7.90;2.55;;;3.20;99.90;;;;;;5131634;27;20088;-82
2023/01/16 01:42:51;;;;;;;6.97;2.38;;;3.20;99.90;;;;;;5117569;27;20060;-81
2023/01/16 01:45:28;;;;;;;5.75;2.17;;;3.20;99.90;;;;;;5110089;27;20027;-81
2023/01/16 01:48:03;;;;;;;6.63;2.28;;;3.10;99.90;;;;;;5109993;27;20054;-81
2023/01/16 01:50:28;;;;;;;;;;;3.10;99.90;;;;;;5114600;27;20402;-81
2023/01/16 01:52:56;;;;;;;6.32;2.08;;;3.10;99.90;;;;;;5117696;28;19920;-82
2023/01/16 01:55:22;;;;;;;8.73;2.20;;;3.10;99.90;;;;;;5111791;27;20532;-81
2023/01/16 01:57:57;;;;;;;9.95;2.40;;;3.10;99.90;;;;;;5125375;27;20068;-81
2023/01/16 02:00:25;;;;;;;7.07;2.25;;;3.20;99.90;;;;;;5113704;27;20428;-81
2023/01/16 02:03:15;;;;;;;7.05;1.95;;;3.20;99.90;;;;;;5101961;28;20096;-81
2023/01/16 02:05:49;;;;;;;7.68;2.67;;;3.30;99.90;;;;;;5103294;27;20617;-81
2023/01/16 02:08:17;;;;;;;8.70;2.70;;;3.30;99.90;;;;;;5119730;27;20055;-81
2023/01/16 02:10:51;;;;;;;8.57;2.17;;;3.40;99.90;;;;;;5129918;27;20035;-81
2023/01/16 02:13:16;;;;;;;6.17;2.40;;;3.40;99.90;;;;;;5118638;27;20063;-82
2023/01/16 02:19:15;;;;;;;8.38;2.05;;;3.50;99.90;;;;;;5113358;27;20294;-81
2023/01/16 02:21:34;;;;;;;8.85;2.20;;;3.50;99.90;;;;;;5119134;27;20122;-82
2023/01/16 02:24:35;;;;;;;6.97;1.83;;;3.50;99.90;;;;;;5123340;27;20039;-81
2023/01/16 02:27:19;;;;;;;7.22;2.05;;;3.60;99.90;;;;;;5123683;27;20397;-82
2023/01/16 02:30:02;;;;;;;11.25;1.92;;;3.60;99.90;;;;;;5107722;28;20043;-81
2023/01/16 02:32:59;;;;;;;9.30;1.98;;;3.60;99.90;;;;;;5117408;27;20046;-82
2023/01/16 02:35:38;;;;;;;7.50;2.47;;;3.60;99.90;;;;;;5120604;27;20508;-81
2023/01/16 02:38:10;;;;;;;8.52;1.65;;;3.60;99.90;;;;;;5127639;27;20078;-81
2023/01/16 02:40:58;;;;;;;7.30;2.17;;;3.60;99.90;;;;;;5123369;27;20401;-81
2023/01/16 02:43:52;;;;;;;8.45;1.95;;;3.70;99.90;;;;;;5120585;27;20051;-81
2023/01/16 02:46:41;;;;;;;8.82;1.90;;;3.70;99.90;;;;;;5085521;27;20051;-82
2023/01/16 02:49:13;;;;;;;11.88;2.17;;;3.70;99.90;;;;;;5119812;27;20054;-82
2023/01/16 02:51:55;;;;;;;7.80;1.70;;;3.70;99.90;;;;;;5125269;27;20519;-81
2023/01/16 02:54:42;;;;;;;6.88;1.70;;;3.70;99.90;;;;;;5123439;27;20036;-81
2023/01/16 02:57:14;;;;;;;5.35;1.73;;;3.70;99.90;;;;;;5118974;27;20078;-81
2023/01/16 02:59:41;;;;;;;6.43;1.65;;;3.70;99.90;;;;;;5116237;27;20118;-81
2023/01/16 03:02:08;;;;;;;5.28;1.85;;;3.70;99.90;;;;;;5122004;27;20028;-81
2023/01/16 03:04:54;;;;;;;6.97;1.60;;;3.70;99.90;;;;;;5098594;27;20116;-82
2023/01/16 03:07:37;;;;;;;7.05;2.03;;;3.70;99.90;;;;;;5106149;27;20055;-82
2023/01/16 03:10:18;;;;;;;10.52;1.73;;;3.70;99.90;;;;;;5117203;27;20046;-82
2023/01/16 03:12:55;;;;;;;10.43;1.73;;;3.70;99.90;;;;;;5119400;27;20055;-82
2023/01/16 03:15:30;;;;;;;5.53;1.77;;;3.70;99.90;;;;;;5119537;27;20031;-81
2023/01/16 03:18:18;;;;;;;8.05;1.77;;;3.70;99.90;;;;;;5116313;27;20047;-82
2023/01/16 03:21:02;;;;;;;6.88;1.90;;;3.70;99.90;;;;;;5121146;27;20031;-81
2023/01/16 03:23:46;;;;;;;11.07;2.50;;;3.60;99.90;;;;;;5121790;27;20052;-81
2023/01/16 03:26:29;;;;;;;4.95;1.83;;;3.60;99.90;;;;;;5116794;27;20174;-82
2023/01/16 03:29:20;;;;;;;6.78;2.00;;;3.50;99.90;;;;;;5116479;27;20047;-82
2023/01/16 03:31:54;;;;;;;7.38;2.15;;;3.50;99.90;;;;;;5127030;27;20039;-82
2023/01/16 03:34:30;;;;;;;4.45;1.83;;;3.60;99.90;;;;;;5105464;27;20116;-82
2023/01/16 03:37:08;;;;;;;6.57;1.77;;;3.60;99.90;;;;;;5118922;27;20039;-82
2023/01/16 03:39:43;;;;;;;6.65;1.65;;;3.60;99.90;;;;;;5117977;27;20054;-82
2023/01/16 03:42:15;;;;;;;11.13;2.28;;;3.60;99.90;;;;;;5111299;27;20027;-82
2023/01/16 03:44:52;;;;;;;7.05;2.22;;;3.70;99.90;;;;;;5118738;27;20042;-82
2023/01/16 03:47:24;;;;;;;9.35;1.77;;;3.60;99.90;;;;;;5116025;27;21558;-82
2023/01/16 03:49:58;;;;;;;8.30;2.10;;;3.60;99.90;;;;;;5122367;27;20118;-82
2023/01/16 03:52:30;;;;;;;5.57;1.70;;;3.60;99.90;;;;;;5142866;27;20078;-82
2023/01/16 03:55:16;;;;;;;4.55;1.92;;;3.60;99.90;;;;;;5121630;27;20039;-81
2023/01/16 03:57:47;;;;;;;5.43;2.22;;;3.60;99.90;;;;;;5144268;27;20034;-82
2023/01/16 04:00:13;;;;;;;4.97;1.92;;;3.50;99.90;;;;;;5120976;27;20035;-82
2023/01/16 04:03:05;;;;;;;5.80;2.08;;;3.50;99.90;;;;;;5125601;27;20117;-82
2023/01/16 04:05:57;;;;;;;10.27;2.50;;;3.50;99.90;;;;;;5121006;27;20043;-82
2023/01/16 04:08:31;;;;;;;8.68;2.10;;;3.60;99.90;;;;;;5119666;27;20034;-82
2023/01/16 04:10:57;;;;;;;10.35;2.30;;;3.60;99.90;;;;;;5120623;27;20058;-82
2023/01/16 04:13:30;;;;;;;10.18;3.00;;;3.60;99.90;;;;;;5117295;27;20523;-82
2023/01/16 04:15:58;;;;;;;10.10;2.63;;;3.70;99.90;;;;;;5128636;27;20047;-82
2023/01/16 04:18:32;;;;;;;7.32;2.47;;;3.70;99.90;;;;;;5120665;27;20051;-81
2023/01/16 04:20:58;;;;;;;7.72;2.88;;;3.80;99.90;;;;;;5118513;27;20035;-83
2023/01/16 04:23:24;;;;;;;8.57;3.15;;;3.80;99.90;;;;;;5142947;27;20064;-82
2023/01/16 04:25:50;;;;;;;10.75;3.30;;;4.10;99.90;;;;;;5141173;27;20039;-82
2023/01/16 04:28:16;;;;;;;7.47;2.90;;;3.80;99.90;;;;;;5133785;27;20121;-82
2023/01/16 04:30:41;;;;;;;9.07;2.90;;;3.80;99.90;;;;;;5126004;27;20118;-82
2023/01/16 04:33:07;;;;;;;7.25;3.00;;;3.80;99.90;;;;;;5102314;27;20035;-82
2023/01/16 04:35:33;;;;;;;7.95;3.50;;;3.80;99.90;;;;;;5121031;27;20066;-82
2023/01/16 04:37:59;;;;;;;7.93;3.42;;;3.80;99.90;;;;;;5140064;27;20034;-82
2023/01/16 04:40:25;;;;;;;8.65;3.92;;;3.80;99.90;;;;;;5143714;27;20035;-82
2023/01/16 04:42:51;;;;;;;7.35;3.30;;;3.90;99.90;;;;;;5123462;27;20034;-82
2023/01/16 04:45:17;;;;;;;7.53;4.20;;;3.90;99.90;;;;;;5136107;27;20114;-82
2023/01/16 04:47:50;;;;;;;12.30;3.83;;;4.00;99.90;;;;;;5096143;27;22043;-82
2023/01/16 04:50:17;;;;;;;12.80;4.22;;;3.90;99.90;;;;;;5116754;27;20047;-82
2023/01/16 04:52:43;;;;;;;10.73;3.83;;;4.00;99.90;;;;;;5139577;27;20039;-82
2023/01/16 04:55:09;;;;;;;10.95;4.03;;;4.00;99.90;;;;;;5101594;27;20034;-82
2023/01/16 04:57:35;;;;;;;11.82;4.50;;;4.10;99.90;;;;;;5093742;27;20204;-82
2023/01/16 05:00:01;;;;;;;10.52;4.50;;;4.10;99.90;;;;;;5107656;27;20039;-82
2023/01/16 05:02:26;;;;;;;14.32;4.90;;;4.30;99.90;;;;;;5118702;27;20109;-82
2023/01/16 05:04:52;;;;;;;12.57;4.35;;;4.10;99.90;;;;;;5122527;27;20075;-82
2023/01/16 05:07:17;;;;;;;13.90;5.55;;;4.10;99.90;;;;;;5118158;27;20056;-82
2023/01/16 05:09:44;;;;;;;9.05;4.88;;;4.10;99.90;;;;;;5116007;27;20036;-82
2023/01/16 05:12:09;;;;;;;9.23;5.20;;;4.20;99.90;;;;;;5119275;27;20042;-82
2023/01/16 05:14:35;;;;;;;10.35;5.35;;;4.20;99.90;;;;;;5122340;27;20051;-82
2023/01/16 05:17:00;;;;;;;14.45;6.78;;;4.20;99.90;;;;;;5121778;27;20114;-83
2023/01/16 05:19:26;;;;;;;10.82;5.90;;;4.20;99.90;;;;;;5141607;27;20058;-82
2023/01/16 05:21:52;;;;;;;12.00;6.90;;;4.20;99.90;;;;;;5121777;27;20041;-82
2023/01/16 05:24:17;;;;;;;14.32;6.75;;;4.30;99.90;;;;;;5119368;27;20396;-82
2023/01/16 05:26:43;;;;;;;12.00;5.90;;;4.20;99.90;;;;;;5122144;27;20086;-82
2023/01/16 05:29:09;;;;;;;12.25;6.78;;;4.20;99.90;;;;;;5125122;27;20039;-82
2023/01/16 05:31:34;;;;;;;15.55;7.13;;;4.10;99.90;;;;;;5116438;27;20627;-82
2023/01/16 05:34:00;;;;;;;12.95;7.55;;;4.10;99.90;;;;;;5099855;27;20049;-83
2023/01/16 05:36:26;;;;;;;14.23;6.97;;;4.00;99.90;;;;;;5116844;27;20545;-82
2023/01/16 05:38:52;;;;;;;17.80;8.30;;;3.90;99.90;;;;;;5118448;27;20596;-82
2023/01/16 05:41:17;;;;;;;15.75;7.68;;;3.80;99.90;;;;;;5138461;27;20043;-82
2023/01/16 05:43:43;;;;;;;14.30;8.02;;;3.80;99.90;;;;;;5121975;27;20074;-82
2023/01/16 05:46:09;;;;;;;15.77;8.05;;;3.70;99.90;;;;;;5120233;27;20042;-82
2023/01/16 05:48:36;;;;;;;15.15;7.78;;;3.60;99.90;;;;;;5093681;27;20424;-82
2023/01/16 05:51:03;;;;;;;16.70;8.05;;;3.60;99.90;;;;;;5117287;27;20034;-82
2023/01/16 05:53:30;;;;;;;13.95;7.55;;;3.50;99.90;;;;;;5128567;27;20050;-82
2023/01/16 05:55:56;;;;;;;19.55;7.80;;;3.50;99.90;;;;;;5111962;27;20438;-82
2023/01/16 05:58:22;;;;;;;16.02;8.30;;;3.40;99.90;;;;;;5137830;27;20023;-82
2023/01/16 06:00:48;;;;;;;16.73;9.55;;;3.40;99.90;;;;;;5130096;27;20042;-83
2023/01/16 06:03:15;;;;;;;14.70;8.07;;;3.40;99.90;;;;;;5113010;27;20531;-82
2023/01/16 06:05:41;;;;;;;21.88;9.75;;;3.40;99.90;;;;;;5121233;27;20039;-83
2023/01/16 06:08:07;;;;;;;19.30;9.02;;;3.30;99.90;;;;;;5119681;28;20031;-82
2023/01/16 06:10:32;;;;;;;18.52;8.40;;;3.30;99.90;;;;;;5105165;27;20122;-82
2023/01/16 06:13:01;;;;;;;18.95;9.48;;;3.30;99.90;;;;;;5100695;28;20035;-83
2023/01/16 06:15:28;;;;;;;17.10;9.05;;;3.30;99.90;;;;;;5096747;27;20039;-82
2023/01/16 06:17:55;;;;;;;24.83;9.38;;;3.70;99.90;;;;;;5119883;27;20046;-81
2023/01/16 06:20:21;;;;;;;18.08;10.00;;;3.30;99.90;;;;;;5092710;27;20063;-82
2023/01/16 06:22:47;;;;;;;17.35;10.00;;;3.30;99.90;;;;;;5138044;27;20505;-82
2023/01/16 06:25:12;;;;;;;20.08;9.18;;;3.40;99.90;;;;;;5125856;27;20062;-82
2023/01/16 06:27:38;;;;;;;17.90;9.35;;;3.40;99.90;;;;;;5120188;27;20041;-82
2023/01/16 06:30:06;;;;;;;24.85;10.27;;;3.50;99.90;;;;;;5120664;27;20049;-82
2023/01/16 06:32:31;;;;;;;19.00;9.13;;;3.50;99.90;;;;;;5105940;27;20413;-82
2023/01/16 06:34:57;;;;;;;18.45;8.90;;;3.50;99.90;;;;;;5117402;27;20039;-83
2023/01/16 06:37:22;;;;;;;17.80;9.43;;;3.60;99.90;;;;;;5130161;27;20038;-82
2023/01/16 06:39:48;;;;;;;14.95;8.15;;;3.60;99.90;;;;;;5103606;27;20152;-82
2023/01/16 06:42:14;;;;;;;14.45;8.32;;;3.60;99.90;;;;;;5140046;27;20035;-83
2023/01/16 06:44:39;;;;;;;15.40;8.25;;;3.10;99.90;;;;;;5128573;27;20043;-82
2023/01/16 06:47:06;;;;;;;14.93;7.70;;;3.50;99.90;;;;;;5135562;27;20035;-83
2023/01/16 06:49:32;;;;;;;15.63;7.55;;;3.50;99.90;;;;;;5141347;27;20478;-82
2023/01/16 06:52:00;;;;;;;15.57;8.65;;;3.50;99.90;;;;;;5141385;27;20038;-83
2023/01/16 06:54:26;;;;;;;16.83;7.35;;;3.50;99.90;;;;;;5125311;27;20488;-82
2023/01/16 06:56:52;;;;;;;17.05;7.47;;;3.40;99.90;;;;;;5121311;27;20512;-82
2023/01/16 06:59:17;;;;;;;16.23;7.00;;;3.40;99.90;;;;;;5102350;27;20027;-84
2023/01/16 07:01:43;;;;;;;16.95;7.28;;;3.40;99.90;;;;;;5117637;27;20043;-83
2023/01/16 07:04:09;;;;;;;12.73;6.35;;;3.40;99.90;;;;;;5112884;27;20081;-84
2023/01/16 07:06:36;;;;;;;16.50;7.15;;;3.40;99.90;;;;;;5116461;27;20082;-83
2023/01/16 07:09:02;;;;;;;15.25;7.00;;;3.40;99.90;;;;;;5114337;27;20046;-83
2023/01/16 07:11:28;;;;;;;14.18;5.85;;;3.40;99.90;;;;;;5097479;27;20039;-84
2023/01/16 07:22:34;;;;;;;13.95;7.13;;;3.60;99.90;;;;;;5114429;27;20122;-84
2023/01/16 07:24:55;;;;;;;16.20;6.80;;;3.30;99.90;;;;;;5136481;27;20099;-84
2023/01/16 07:27:21;;;;;;;12.88;6.78;;;3.30;99.90;;;;;;5136835;27;20042;-85
2023/01/16 07:29:47;;;;;;;13.90;5.80;;;3.30;99.90;;;;;;5122098;27;20435;-82
2023/01/16 07:32:12;;;;;;;13.55;6.50;;;3.50;99.90;;;;;;5131537;27;20036;-83
2023/01/16 07:34:38;;;;;;;13.30;6.07;;;3.30;99.90;;;;;;5116913;27;20208;-83
2023/01/16 07:37:07;;;;;;;16.23;6.07;;;3.30;99.90;;;;;;5119684;27;20050;-85
2023/01/16 07:39:32;;;;;;;14.13;6.45;;;3.20;99.90;;;;;;5098696;27;20470;-83
2023/01/16 07:42:03;;;;;;;15.38;6.35;;;3.20;99.90;;;;;;5110501;27;20087;-83
2023/01/16 07:44:29;;;;;;;13.70;6.20;;;3.20;99.90;;;;;;5129791;27;20042;-83
2023/01/16 07:46:54;;;;;;;15.35;6.75;;;3.20;99.90;;;;;;5112061;27;20044;-83
2023/01/16 07:49:20;;;;;;;16.15;6.15;;;3.20;99.90;;;;;;5128764;27;20043;-83
2023/01/16 07:51:46;;;;;;;13.52;6.00;;;3.20;99.90;;;;;;5113668;27;20050;-83
2023/01/16 07:54:13;;;;;;;13.68;6.05;;;3.20;99.90;;;;;;5099037;27;20049;-84
2023/01/16 07:56:38;;;;;;;14.95;5.60;;;3.20;99.90;;;;;;5119135;27;20046;-84
2023/01/16 07:59:04;;;;;;;12.63;5.85;;;3.20;99.90;;;;;;5128178;27;20031;-84
2023/01/16 08:01:30;;;;;;;14.75;5.63;;;3.20;99.90;;;;;;5111062;27;20485;-85
2023/01/16 08:03:55;;;;;;;12.65;5.95;;;3.20;99.90;;;;;;5137936;27;20087;-82
2023/01/16 08:06:21;;;;;;;13.73;6.35;;;3.20;99.90;;;;;;5119536;27;20113;-83
2023/01/16 08:08:47;;;;;;;13.18;5.80;;;3.20;99.90;;;;;;5133150;27;20035;-83
2023/01/16 08:13:56;;;;;;;17.83;5.55;;;3.30;99.90;;;;;;5119790;27;20055;-85
2023/01/16 08:16:22;;;;;;;14.68;5.65;;;3.30;99.90;;;;;;5114367;27;20027;-84
2023/01/16 08:18:48;;;;;;;10.07;5.57;;;3.30;99.90;;;;;;5107448;27;20471;-86
2023/01/16 08:21:16;;;;;;;13.43;6.03;;;3.30;99.90;;;;;;5102322;27;20199;-84
2023/01/16 08:23:42;;;;;;;10.13;4.90;;;3.50;99.90;;;;;;5094935;27;20039;-86
2023/01/16 08:26:08;;;;;;;12.18;5.32;;;3.30;99.90;;;;;;5100986;27;20035;-84
2023/01/16 08:28:34;;;;;;;15.88;5.90;;;3.40;99.90;;;;;;5123641;27;20042;-87
2023/01/16 08:31:07;;;;;;;12.90;5.78;;;3.60;99.90;;;;;;5112772;27;20050;-86
2023/01/16 08:33:37;;;;;;;13.52;5.55;;;3.40;99.90;;;;;;5103493;27;20131;-87
2023/01/16 08:36:08;;;;;;;12.52;5.20;;;3.40;99.90;;;;;;5119314;27;20122;-87
2023/01/16 08:38:35;;;;;;;11.73;5.25;;;3.50;99.90;;;;;;5102562;27;20042;-87
2023/01/16 08:41:01;;;;;;;11.43;5.72;;;3.50;99.90;;;;;;5107076;27;20039;-86
2023/01/16 08:51:56;;;;;;;14.10;5.65;;;3.60;99.90;;;;;;5107938;27;20079;-88
2023/01/16 08:54:22;;;;;;;17.48;6.00;;;3.60;99.90;;;;;;5087337;27;20067;-91
2023/01/16 08:56:48;;;;;;;13.23;5.40;;;3.70;99.90;;;;;;5098911;27;20085;-89
2023/01/16 08:59:14;;;;;;;9.75;4.75;;;3.70;99.90;;;;;;5117399;27;20031;-87
2023/01/16 09:01:41;;;;;;;15.40;5.28;;;3.80;99.90;;;;;;5111870;27;20068;-89
2023/01/16 09:04:08;;;;;;;8.00;4.63;;;3.70;99.90;;;;;;5121258;27;20050;-87
2023/01/16 09:06:35;;;;;;;8.98;4.53;;;4.30;99.90;;;;;;5109557;27;20046;-88
2023/01/16 09:09:06;;;;;;;9.00;4.72;;;3.80;99.90;;;;;;5119909;27;20117;-87
2023/01/16 09:14:20;;;;;;;8.73;4.55;;;3.80;99.90;;;;;;5107487;27;20047;-84
2023/01/16 09:16:45;;;;;;;10.55;4.32;;;3.90;99.90;;;;;;5113373;27;20393;-84
2023/01/16 09:19:11;;;;;;;7.82;3.80;;;4.50;99.90;;;;;;5104668;27;20397;-83
2023/01/16 09:21:37;;;;;;;10.95;4.13;;;4.00;99.90;;;;;;5107264;27;20035;-83
2023/01/16 09:24:03;;;;;;;9.13;3.72;;;4.00;99.90;;;;;;5111278;27;20031;-84
2023/01/16 09:26:30;;;;;;;9.00;3.97;;;4.00;99.90;;;;;;5107763;27;20039;-83
2023/01/16 09:28:56;;;;;;;8.02;3.70;;;4.00;99.90;;;;;;5127009;27;20135;-83
2023/01/16 09:31:21;;;;;;;9.07;3.97;;;4.10;99.90;;;;;;5115932;27;20467;-83
2023/01/16 09:33:48;;;;;;;7.90;4.03;;;4.10;99.90;;;;;;5112543;27;20031;-84
2023/01/16 09:36:14;;;;;;;8.38;3.90;;;4.10;99.90;;;;;;5128930;27;20034;-85
2023/01/16 09:38:40;;;;;;;11.48;3.50;;;4.10;99.90;;;;;;5112309;27;20493;-84
2023/01/16 09:43:35;;;;;;;7.25;2.90;;;4.90;99.90;;;;;;5093578;27;20045;-84
2023/01/16 09:44:00;;;;;;;6.97;3.22;;;4.20;99.90;;;;;;5113142;27;20065;-87
2023/01/16 09:46:29;;;;;;;9.20;3.58;;;4.20;99.90;;;;;;5103801;27;20501;-91
2023/01/16 09:49:10;;;;;;;7.45;2.60;;;4.20;99.90;;;;;;5111570;27;20546;-88
2023/01/16 09:51:42;;;;;;;6.40;2.63;;;4.20;99.90;;;;;;5113449;27;20804;-87
2023/01/16 09:59:54;;;;;;;8.75;3.33;;;4.30;99.90;;;;;;5110039;27;20074;-84
2023/01/16 10:02:30;;;;;;;7.22;2.88;;;4.30;99.90;;;;;;5090947;28;20505;-84
2023/01/16 10:04:57;;;;;;;5.95;2.30;;;4.30;99.90;;;;;;5119658;27;20047;-84
2023/01/16 10:08:18;;;;;;;5.93;2.58;;;4.30;99.90;;;;;;5108162;27;20500;-84
2023/01/16 10:11:06;;;;;;;9.23;2.60;;;4.30;99.90;;;;;;5009884;28;20045;-84
2023/01/16 10:14:10;;;;;;;5.38;2.63;;;4.30;99.90;;;;;;5015126;28;20081;-84
2023/01/16 10:16:59;;;;;;;8.53;2.50;;;4.30;99.90;;;;;;5027108;28;20064;-83
2023/01/16 10:19:42;;;;;;;6.05;2.58;;;4.30;99.90;;;;;;5021159;28;20803;-83
2023/01/16 10:22:21;;;;;;;7.03;2.58;;;4.30;99.90;;;;;;5021860;28;20049;-83
2023/01/16 10:25:08;;;;;;;12.57;2.45;;;4.30;99.90;;;;;;5032982;28;20120;-83
2023/01/16 10:27:52;;;;;;;5.43;2.25;;;4.40;99.90;;;;;;5013338;28;20052;-86
2023/01/16 10:30:33;;;;;;;6.38;2.30;;;4.40;99.90;;;;;;4996393;28;20045;-88
2023/01/16 10:33:25;;;;;;;5.25;2.42;;;4.40;99.90;;;;;;5024828;28;20049;-84
2023/01/16 10:35:52;;;;;;;5.28;2.30;;;4.40;99.90;;;;;;5019574;28;20175;-84
2023/01/16 10:38:23;;;;;;;6.45;2.17;;;4.40;99.90;;;;;;5026940;28;20041;-84
2023/01/16 10:40:54;;;;;;;7.85;2.25;;;4.40;99.90;;;;;;5014125;28;20112;-85
2023/01/16 10:49:27;;;;;;;6.80;2.25;;;4.30;99.90;;;;;;5124946;27;20046;-85
2023/01/16 10:51:57;;;;;;;5.18;1.70;;;4.30;99.90;;;;;;5095548;27;20766;-85
2023/01/16 10:54:23;;;;;;;8.10;2.00;;;4.30;99.90;;;;;;5113677;27;20393;-86
2023/01/16 10:56:49;;;;;;;7.43;1.80;;;4.30;99.90;;;;;;5097146;27;20039;-87
2023/01/16 10:59:15;;;;;;;4.80;1.63;;;4.20;99.90;;;;;;5131926;27;20030;-87
2023/01/16 11:01:42;;;;;;;5.43;1.73;;;4.30;99.90;;;;;;5099547;27;20087;-87
2023/01/16 11:04:12;;;;;;;4.65;1.50;;;4.20;99.90;;;;;;5117567;27;20114;-87
2023/01/16 11:06:41;;;;;;;3.65;1.23;;;4.20;99.90;;;;;;5113548;27;20590;-86
2023/01/16 11:09:13;;;;;;;5.20;1.35;;;4.80;99.90;;;;;;5104035;27;20046;-86
2023/01/16 11:20:24;;;;;;;4.30;1.10;;;4.10;99.90;;;;;;5131395;22;20050;-85
2023/01/16 11:23:08;;;;;;;4.82;1.48;;;3.00;99.90;;;;;;5062001;28;20044;-85
2023/01/16 11:25:35;;;;;;;3.57;1.17;;;4.10;99.90;;;;;;5065893;28;20146;-84
2023/01/16 11:28:05;;;;;;;5.07;1.50;;;4.00;99.90;;;;;;5046973;28;20025;-86
2023/01/16 11:30:36;;;;;;;3.72;1.20;;;4.10;99.90;;;;;;5042534;28;20492;-85
2023/01/16 11:33:07;;;;;;;5.13;1.55;;;4.10;99.90;;;;;;5049262;28;20104;-85
2023/01/16 11:35:36;;;;;;;4.15;1.50;;;4.60;99.90;;;;;;5048000;28;20072;-86
2023/01/16 11:38:03;;;;;;;7.72;1.50;;;4.10;99.90;;;;;;5030344;28;20055;-86
2023/01/16 11:40:36;;;;;;;6.47;1.52;;;4.10;99.90;;;;;;5033648;28;20041;-86
2023/01/16 11:46:03;;;;;;;6.60;1.70;;;4.10;99.90;;;;;;5044972;28;20044;-86
2023/01/16 11:48:41;;;;;;;5.35;2.10;;;4.00;99.90;;;;;;5028178;28;20048;-85
2023/01/16 11:51:17;;;;;;;5.20;1.88;;;4.00;99.90;;;;;;5044952;28;20037;-86
2023/01/16 11:53:45;;;;;;;3.35;1.58;;;4.10;99.90;;;;;;5043761;28;20094;-86
2023/01/16 11:56:43;;;;;;;4.60;1.80;;;4.10;99.90;;;;;;5049914;28;20107;-86
2023/01/16 11:59:18;;;;;;;3.30;1.45;;;4.10;99.90;;;;;;5062681;28;20110;-85
2023/01/16 12:02:19;;;;;;;5.40;1.77;;;4.10;99.90;;;;;;5047789;28;20128;-85
2023/01/16 12:08:27;;;;;;;4.57;1.85;;;4.10;99.90;;;;;;5044492;28;20044;-85
2023/01/16 12:11:08;;;;;;;3.10;1.52;;;4.10;99.90;;;;;;5049654;28;20154;-84
2023/01/16 12:16:44;;;;;;;4.60;1.65;;;4.10;99.90;;;;;;5049393;28;20037;-84
2023/01/16 12:19:47;;;;;;;4.65;1.58;;;4.10;99.90;;;;;;5051777;28;20697;-85
2023/01/16 12:22:32;;;;;;;5.03;1.73;;;4.20;99.90;;;;;;5047382;28;20502;-85
2023/01/16 12:25:03;;;;;;;4.00;1.80;;;4.20;99.90;;;;;;5049441;28;20614;-86
2023/01/16 12:27:39;;;;;;;3.78;1.92;;;4.20;99.90;;;;;;5042152;28;20052;-85
2023/01/16 12:30:47;;;;;;;3.65;1.80;;;4.20;99.90;;;;;;5049812;28;20048;-86
2023/01/16 12:33:42;;;;;;;5.13;2.15;;;4.20;99.90;;;;;;5023680;28;20037;-85
2023/01/16 12:36:34;;;;;;;3.88;1.95;;;4.30;99.90;;;;;;5044225;28;20486;-83
2023/01/16 12:39:25;;;;;;;7.68;2.00;;;5.50;99.90;;;;;;5041206;28;20052;-86
2023/01/16 12:45:42;;;;;;;4.43;1.95;;;4.40;99.90;;;;;;5041095;28;20052;-84
2023/01/16 12:49:10;;;;;;;2.92;1.70;;;4.40;99.90;;;;;;5042941;28;20044;-84
2023/01/16 12:51:54;;;;;;;3.28;1.67;;;4.40;99.90;;;;;;5045730;28;20041;-87
2023/01/16 12:55:09;;;;;;;5.80;2.40;;;4.50;99.90;;;;;;5055157;28;20076;-87
2023/01/16 12:58:06;;;;;;;4.20;2.10;;;4.60;99.90;;;;;;5045624;28;20034;-86
2023/01/16 13:00:57;;;;;;;7.78;2.17;;;5.20;99.90;;;;;;5042873;28;20099;-85
2023/01/16 13:03:42;;;;;;;6.57;2.33;;;4.50;99.90;;;;;;5039429;28;20076;-85
2023/01/16 13:06:40;;;;;;;6.15;2.30;;;4.10;99.90;;;;;;5039454;28;20053;-84
2023/01/16 13:09:50;;;;;;;5.53;2.30;;;4.50;99.90;;;;;;5022956;28;20571;-86
2023/01/16 13:15:34;;;;;;;4.65;2.50;;;4.60;99.90;;;;;;5042401;28;20049;-84
2023/01/16 13:18:25;;;;;;;6.80;2.28;;;4.50;99.90;;;;;;5045421;28;20068;-86
2023/01/16 13:20:57;;;;;;;6.05;2.38;;;3.80;99.90;;;;;;5042462;28;20103;-86
2023/01/16 13:23:33;;;;;;;6.38;2.50;;;4.60;99.90;;;;;;5042834;28;20052;-85
2023/01/16 13:26:14;;;;;;;6.47;2.17;;;4.60;99.90;;;;;;5037940;28;20052;-86
2023/01/16 13:29:15;;;;;;;6.07;2.13;;;4.60;99.90;;;;;;5041499;28;20037;-85
2023/01/16 13:31:48;;;;;;;4.30;2.13;;;4.60;99.90;;;;;;5040997;28;20128;-86
2023/01/16 13:34:42;;;;;;;5.03;2.03;;;4.60;99.90;;;;;;5057132;28;20133;-85
2023/01/16 13:37:27;;;;;;;5.20;2.15;;;4.60;99.90;;;;;;5039697;28;20060;-85
2023/01/16 13:40:26;;;;;;;4.40;1.73;;;4.60;99.90;;;;;;5056951;28;20045;-85
2023/01/16 13:46:27;;;;;;;7.53;2.35;;;4.60;99.90;;;;;;5041705;28;20045;-85
2023/01/16 13:48:59;;;;;;;5.50;1.90;;;4.70;99.90;;;;;;5019468;28;20049;-84
2023/01/16 13:51:25;;;;;;;5.53;2.08;;;4.70;99.90;;;;;;5038982;28;20064;-85
2023/01/16 13:53:55;;;;;;;4.20;1.73;;;4.50;99.90;;;;;;5041385;28;20484;-84
2023/01/16 13:56:24;;;;;;;4.72;1.90;;;4.70;99.90;;;;;;5043141;28;20041;-85
2023/01/16 13:59:03;;;;;;;2.75;1.58;;;5.50;99.90;;;;;;5040015;28;20052;-86
2023/01/16 14:01:39;;;;;;;3.78;1.77;;;4.10;99.90;;;;;;5039472;28;20041;-84
2023/01/16 14:04:20;;;;;;;5.07;2.00;;;4.70;99.90;;;;;;5037748;28;20491;-88
2023/01/16 14:09:03;;;;;;;5.20;2.00;;;4.70;99.90;;;;;;5047317;28;20048;-85
2023/01/16 14:10:15;;;;;;;5.03;1.83;;;4.70;99.90;;;;;;5043280;28;20154;-86
2023/01/16 14:13:03;;;;;;;4.45;1.75;;;4.80;99.90;;;;;;5056573;28;20045;-85
2023/01/16 14:16:31;;;;;;;2.95;1.85;;;4.80;99.90;;;;;;5049645;28;20053;-85
2023/01/16 14:18:56;;;;;;;4.90;2.03;;;4.80;99.90;;;;;;4966081;28;20074;-85
2023/01/16 14:21:28;;;;;;;4.40;1.67;;;4.80;99.90;;;;;;4968447;28;20089;-85
2023/01/16 14:24:00;;;;;;;5.25;1.80;;;4.80;99.90;;;;;;4986033;28;20049;-85
2023/01/16 14:26:31;;;;;;;4.72;1.75;;;4.80;99.90;;;;;;4970255;28;20053;-85